Olympic National Park, WA

8:55 PM PDT on August 31, 2016 (GMT -0700)
Lake Dawn | | Change Station

Elev 1864 ft 48.04 °N, 123.43 °W | Updated 10 minutes ago

Light Rain
Light Rain
57.4 °F
Feels Like 57.4 °F
N
0.7
Wind Variable Wind from SW
Gusts 1.6 mph

Today
High -- | Low -- °F
--% Chance of Precip.
Yesterday
High -- | Low -- °F
Precip. -- in
Pressure 29.97 in
Visibility 7.0 miles
Clouds Few 2300 ft
Mostly Cloudy 3200 ft
Overcast 6500 ft
Dew Point 54 °F
Humidity 88%
Rainfall in
Snow Depth Not available.
6:31 AM 7:55 PM
Waning Crescent, 0% visible
METAR KCLM 010353Z AUTO 33003KT 7SM -RA FEW023 BKN032 OVC065 16/14 A2997 RMK AO2 RAB26 SLP148 P0001 T01560139
Pressure 29.97 in
Visibility 7.0 miles
Clouds Few 2300 ft
Mostly Cloudy 3200 ft
Overcast 6500 ft
Dew Point 54 °F
Humidity 88%
Rainfall in
Snow Depth Not available.
6:31 AM 7:55 PM
Waning Crescent, 0% visible
METAR KCLM 010353Z AUTO 33003KT 7SM -RA FEW023 BKN032 OVC065 16/14 A2997 RMK AO2 RAB26 SLP148 P0001 T01560139

10-Day Weather Forecast

Almanac

Astronomy

Aug. 31, 2016 Rise Set
Actual Time
Civil Twilight
Nautical Twilight
Astronomical Twilight
Moon
Length of Visible Light
Length of Day
Tomorrow will be .
, % of the Moon is Illuminated

Today's Extremes

State Highs State Lows

Community

WunderPhotos

Upload Photos

1,936,291 photos uploaded!

WunderBlog® & News

Nearby

Air Quality

  Air Quality AQ Index Pollutant
Not available.

Snow Depth

Station Depth Elevation

Earthquake Activity

City Distance Mag. Time & Date
Minimum magnitude displayed is 2.5.

Coastal Water Temperatures

Place Temperature

Stations

Nearby Weather Stations

Station Location Temp. Windchill Dew Point Humidity Wind Precip. Elev Updated Type
                   

Watches & Warnings

There are currently no watches in effect.